createdAt,value
2023-01-13T00:04:34.604Z,0.00
2023-01-13T00:09:36.155Z,0.10
2023-01-13T00:14:37.606Z,0.20
2023-01-13T00:19:39.052Z,0.03
2023-01-13T00:24:40.536Z,0.00
2023-01-13T00:29:42.013Z,0.10
2023-01-13T00:34:43.493Z,0.10
2023-01-13T00:39:45.703Z,0.00
2023-01-13T00:44:47.156Z,0.10
2023-01-13T00:49:48.913Z,0.10
2023-01-13T00:54:50.364Z,0.05
2023-01-13T00:59:51.803Z,0.00
2023-01-13T01:04:53.286Z,0.00
2023-01-13T01:09:54.725Z,0.10
2023-01-13T01:14:56.197Z,0.10
2023-01-13T01:19:57.653Z,0.10
2023-01-13T01:24:59.639Z,0.00
2023-01-13T01:30:01.118Z,0.10
2023-01-13T01:35:02.619Z,0.00
2023-01-13T01:40:07.043Z,0.00
2023-01-13T01:45:27.381Z,0.00
2023-01-13T01:50:28.952Z,0.03
2023-01-13T01:55:30.815Z,0.00
2023-01-13T02:00:32.407Z,0.00
2023-01-13T02:05:34.418Z,0.00
2023-01-13T02:10:36.273Z,0.13
2023-01-13T02:15:49.822Z,0.00
2023-01-13T02:21:05.799Z,0.20
2023-01-13T02:26:45.760Z,0.10
2023-01-13T02:31:47.811Z,0.17
2023-01-13T02:36:57.268Z,0.13
2023-01-13T02:42:29.932Z,0.10
2023-01-13T02:47:32.559Z,0.10
2023-01-13T02:52:39.329Z,0.10
2023-01-13T02:57:41.170Z,0.15
2023-01-13T03:02:42.673Z,0.20
2023-01-13T03:08:23.149Z,0.10
2023-01-13T03:13:47.060Z,0.10
2023-01-13T03:19:03.452Z,0.10
2023-01-13T03:24:13.821Z,0.20
2023-01-13T03:29:29.236Z,0.20
2023-01-13T03:34:54.298Z,0.03
2023-01-13T03:39:59.361Z,0.08
2023-01-13T03:45:02.817Z,0.00
2023-01-13T03:50:06.721Z,0.10
2023-01-13T03:55:26.637Z,0.10
2023-01-13T04:00:31.386Z,0.10
2023-01-13T04:05:33.889Z,0.10
2023-01-13T04:10:39.422Z,0.05
2023-01-13T04:15:42.469Z,0.00
2023-01-13T04:20:45.144Z,0.00
2023-01-13T04:25:46.652Z,0.00
2023-01-13T04:30:48.091Z,0.03
2023-01-13T04:35:49.534Z,0.00
2023-01-13T04:40:50.911Z,0.08
2023-01-13T04:45:52.318Z,0.05
2023-01-13T04:50:53.745Z,0.00
2023-01-13T04:55:55.253Z,0.10
2023-01-13T05:00:56.672Z,0.00
2023-01-13T05:05:58.124Z,0.03
2023-01-13T05:11:22.570Z,0.10
2023-01-13T05:16:53.154Z,0.00
2023-01-13T05:22:13.058Z,0.00
2023-01-13T05:27:14.443Z,0.10
2023-01-13T05:32:15.831Z,0.00
2023-01-13T05:37:17.391Z,0.00
2023-01-13T05:42:37.386Z,0.00
2023-01-13T05:47:38.832Z,0.00
2023-01-13T05:52:40.211Z,0.00
2023-01-13T05:57:41.766Z,0.00
2023-01-13T06:02:43.180Z,0.00
2023-01-13T06:07:44.573Z,0.00
2023-01-13T06:12:45.957Z,0.08
2023-01-13T06:17:47.471Z,0.10
2023-01-13T06:22:49.847Z,0.10
2023-01-13T06:27:51.331Z,0.10
2023-01-13T06:32:53.787Z,0.00
2023-01-13T06:37:55.715Z,0.08
2023-01-13T06:43:16.702Z,0.10
2023-01-13T06:48:19.777Z,0.10
2023-01-13T06:53:21.159Z,0.00
2023-01-13T06:58:22.870Z,0.00
2023-01-13T07:03:24.239Z,0.00
2023-01-13T07:08:25.727Z,0.00
2023-01-13T07:13:45.926Z,0.00
2023-01-13T07:18:47.381Z,0.08
2023-01-13T07:23:48.814Z,0.10
2023-01-13T07:28:50.236Z,0.20
2023-01-13T07:33:51.655Z,0.03
2023-01-13T07:38:54.808Z,0.17
2023-01-13T07:43:56.396Z,0.00
2023-01-13T07:48:57.785Z,0.00
2023-01-13T07:53:59.155Z,0.10
2023-01-13T07:59:00.623Z,0.00
2023-01-13T08:04:01.995Z,0.00
2023-01-13T08:09:03.796Z,0.00
2023-01-13T08:14:05.256Z,0.20
2023-01-13T08:19:06.670Z,0.00
2023-01-13T08:24:09.591Z,0.00
2023-01-13T08:29:13.687Z,0.00
2023-01-13T08:34:16.171Z,0.00
2023-01-13T08:39:18.558Z,0.20
2023-01-13T08:44:19.943Z,0.20
2023-01-13T08:49:24.390Z,0.10
2023-01-13T08:54:25.788Z,0.00
2023-01-13T08:59:27.203Z,0.10
2023-01-13T09:04:31.705Z,0.17
2023-01-13T09:09:33.148Z,0.00
2023-01-13T09:14:35.507Z,0.20
2023-01-13T09:19:36.990Z,0.20
2023-01-13T09:24:38.374Z,0.20
2023-01-13T09:29:39.761Z,0.10
2023-01-13T09:34:59.299Z,0.10
2023-01-13T09:40:01.118Z,0.10
2023-01-13T09:45:16.675Z,0.10
2023-01-13T09:55:24.247Z,0.20
2023-01-13T10:00:28.325Z,0.10
2023-01-13T10:05:50.096Z,0.10
2023-01-13T10:10:55.242Z,0.10
2023-01-13T10:16:28.026Z,0.13
2023-01-13T10:21:48.116Z,0.00
2023-01-13T10:27:28.511Z,0.20
2023-01-13T10:32:29.913Z,0.20
2023-01-13T10:37:31.529Z,0.20
2023-01-13T10:42:32.960Z,0.10
2023-01-13T10:47:36.454Z,0.10
2023-01-13T10:52:42.687Z,0.10
2023-01-13T10:57:44.072Z,0.10
2023-01-13T11:02:45.527Z,0.10
2023-01-13T11:07:52.342Z,0.35
2023-01-13T11:13:16.750Z,0.10
2023-01-13T11:18:51.564Z,0.10
2023-01-13T11:24:06.699Z,0.20
2023-01-13T11:29:31.325Z,0.10
2023-01-13T11:34:36.975Z,0.10
2023-01-13T11:40:01.310Z,0.10
2023-01-13T11:45:23.425Z,0.17
2023-01-13T11:50:35.037Z,0.10
2023-01-13T11:55:57.609Z,0.30
2023-01-13T12:01:17.361Z,0.13
2023-01-13T12:06:24.342Z,0.10
2023-01-13T12:11:33.709Z,0.10
2023-01-13T12:16:35.126Z,0.13
2023-01-13T12:21:38.769Z,0.10
2023-01-13T12:26:55.057Z,0.10
2023-01-13T12:31:56.511Z,0.10
2023-01-13T12:37:20.635Z,0.15
2023-01-13T12:42:45.472Z,0.10
2023-01-13T12:47:46.845Z,0.20
2023-01-13T12:52:54.970Z,0.17
2023-01-13T12:58:02.433Z,0.05
2023-01-13T13:03:13.640Z,0.20
2023-01-13T13:08:16.637Z,0.10
2023-01-13T13:13:39.724Z,0.10
2023-01-13T13:18:41.095Z,0.00
2023-01-13T13:23:56.915Z,0.17
2023-01-13T13:29:20.548Z,0.13
2023-01-13T13:34:48.234Z,0.10
2023-01-13T13:40:08.172Z,0.10
2023-01-13T13:45:40.118Z,0.10
2023-01-13T13:50:47.488Z,0.63
2023-01-13T13:55:56.030Z,0.50
2023-01-13T14:00:57.609Z,0.43
2023-01-13T14:06:04.032Z,0.20
2023-01-13T14:11:25.335Z,0.70
2023-01-13T14:16:26.710Z,0.38
2023-01-13T14:21:28.627Z,0.43
2023-01-13T14:26:31.153Z,0.35
2023-01-13T14:31:32.527Z,0.47
2023-01-13T14:36:33.743Z,0.45
2023-01-13T14:41:45.258Z,0.55
2023-01-13T14:46:46.640Z,0.30
2023-01-13T14:51:48.055Z,0.40
2023-01-13T14:56:50.744Z,0.30
2023-01-13T15:01:54.180Z,0.15
2023-01-13T15:06:56.233Z,0.25
2023-01-13T15:11:58.727Z,0.30
2023-01-13T15:17:00.167Z,0.22
2023-01-13T15:22:01.532Z,0.20
2023-01-13T15:27:02.915Z,0.10
2023-01-13T15:32:04.488Z,0.10
2023-01-13T15:37:08.154Z,0.00
2023-01-13T15:42:30.708Z,0.20
2023-01-13T15:47:32.095Z,0.10
2023-01-13T15:52:33.549Z,0.10
2023-01-13T15:57:36.199Z,0.20
2023-01-13T16:02:37.592Z,0.20
2023-01-13T16:07:39.053Z,0.00
2023-01-13T16:12:41.069Z,0.13
2023-01-13T16:17:43.373Z,0.03
2023-01-13T16:22:47.545Z,0.10
2023-01-13T16:27:49.060Z,0.20
2023-01-13T16:32:50.490Z,0.20
2023-01-13T16:37:52.207Z,0.30
2023-01-13T16:42:53.640Z,0.35
2023-01-13T16:47:55.016Z,0.20
2023-01-13T16:52:56.390Z,0.25
2023-01-13T16:57:57.830Z,0.20
2023-01-13T17:03:01.058Z,0.17
2023-01-13T17:08:02.555Z,0.20
2023-01-13T17:13:14.799Z,0.38
2023-01-13T17:18:17.560Z,0.15
2023-01-13T17:23:18.949Z,0.30
2023-01-13T17:28:20.330Z,0.20
2023-01-13T17:33:21.768Z,0.20
2023-01-13T17:38:23.186Z,0.20
2023-01-13T17:43:25.182Z,0.20
2023-01-13T17:48:26.575Z,0.20
2023-01-13T17:53:29.222Z,0.30
2023-01-13T17:58:31.474Z,0.20
2023-01-13T18:03:32.849Z,0.22
2023-01-13T18:08:34.245Z,0.20
2023-01-13T18:13:35.906Z,0.15
2023-01-13T18:18:37.905Z,0.28
2023-01-13T18:23:57.823Z,0.30
2023-01-13T18:28:59.222Z,0.20
2023-01-13T18:34:00.594Z,0.10
2023-01-13T18:39:03.313Z,0.35
2023-01-13T18:44:04.754Z,0.20
2023-01-13T18:49:06.128Z,0.28
2023-01-13T18:54:07.531Z,0.40
2023-01-13T18:59:08.910Z,0.30
2023-01-13T19:04:15.389Z,0.47
2023-01-13T19:09:24.512Z,0.50
2023-01-13T19:14:34.844Z,0.52
2023-01-13T19:19:43.820Z,0.32
2023-01-13T19:24:45.748Z,0.40
2023-01-13T19:29:50.728Z,0.45
2023-01-13T19:34:54.895Z,0.20
2023-01-13T19:39:58.010Z,0.35
2023-01-13T19:45:17.653Z,0.28
2023-01-13T19:50:19.443Z,0.40
2023-01-13T19:55:20.868Z,0.40
2023-01-13T20:00:22.963Z,0.25
2023-01-13T20:05:26.074Z,0.40
2023-01-13T20:10:30.107Z,0.20
2023-01-13T20:15:31.524Z,0.30
2023-01-13T20:20:32.929Z,0.20
2023-01-13T20:25:34.347Z,0.28
2023-01-13T20:30:35.873Z,0.20
2023-01-13T20:35:37.241Z,0.30
2023-01-13T20:40:38.619Z,0.40
2023-01-13T20:45:40.377Z,0.30
2023-01-13T20:50:42.043Z,0.25
2023-01-13T20:55:43.426Z,0.30
2023-01-13T21:00:44.833Z,0.32
2023-01-13T21:05:46.221Z,0.20
2023-01-13T21:10:47.595Z,0.30
2023-01-13T21:15:49.046Z,0.22
2023-01-13T21:20:51.501Z,0.20
2023-01-13T21:25:52.877Z,0.30
2023-01-13T21:30:54.343Z,0.47
2023-01-13T21:35:55.837Z,0.30
2023-01-13T21:41:01.999Z,0.30
2023-01-13T21:46:35.320Z,0.20
2023-01-13T21:51:36.692Z,0.20
2023-01-13T21:56:38.063Z,0.20
2023-01-13T22:02:13.239Z,0.10
2023-01-13T22:07:04.418Z,0.20
2023-01-13T22:12:05.794Z,0.30
2023-01-13T22:17:07.522Z,0.35
2023-01-13T22:22:14.033Z,0.20
2023-01-13T22:27:19.925Z,0.30
2023-01-13T22:32:21.303Z,0.30
2023-01-13T22:37:22.683Z,0.30
2023-01-13T22:42:24.057Z,0.30
2023-01-13T22:47:25.482Z,0.10
2023-01-13T22:52:28.372Z,0.22
2023-01-13T22:57:35.941Z,0.45
2023-01-13T23:02:38.139Z,0.30
2023-01-13T23:07:39.605Z,0.30
2023-01-13T23:12:41.022Z,0.30
2023-01-13T23:17:43.258Z,0.20
2023-01-13T23:22:44.834Z,0.25
2023-01-13T23:27:46.247Z,0.32
2023-01-13T23:32:47.612Z,0.20
2023-01-13T23:37:49.030Z,0.30
2023-01-13T23:42:50.467Z,0.20
2023-01-13T23:47:52.168Z,0.20
2023-01-13T23:52:53.764Z,0.22
2023-01-13T23:57:55.150Z,0.20
